createdAt,value
2023-05-07T00:00:22.441Z,14.17
2023-05-07T00:02:49.243Z,14.14
2023-05-07T00:05:16.384Z,14.10
2023-05-07T00:07:43.209Z,14.17
2023-05-07T00:10:11.885Z,14.17
2023-05-07T00:12:38.838Z,14.19
2023-05-07T00:15:06.553Z,14.26
2023-05-07T00:17:34.335Z,14.31
2023-05-07T00:20:01.086Z,14.38
2023-05-07T00:22:27.774Z,14.45
2023-05-07T00:24:54.459Z,14.26
2023-05-07T00:27:21.041Z,14.29
2023-05-07T00:29:47.652Z,14.22
2023-05-07T00:32:14.526Z,14.18
2023-05-07T00:34:41.460Z,14.16
2023-05-07T00:37:10.920Z,14.09
2023-05-07T00:39:37.515Z,14.00
2023-05-07T00:42:04.240Z,13.94
2023-05-07T00:44:30.915Z,14.17
2023-05-07T00:47:03.207Z,14.17
2023-05-07T00:49:42.291Z,14.17
2023-05-07T00:52:12.384Z,14.14
2023-05-07T00:54:41.033Z,14.18
2023-05-07T00:57:07.789Z,14.13
2023-05-07T00:59:34.850Z,14.11
2023-05-07T01:02:01.680Z,14.16
2023-05-07T01:04:28.578Z,14.08
2023-05-07T01:06:57.223Z,14.07
2023-05-07T01:09:28.797Z,14.02
2023-05-07T01:11:58.385Z,14.10
2023-05-07T01:14:26.679Z,14.10
2023-05-07T01:16:54.907Z,14.13
2023-05-07T01:19:21.874Z,14.09
2023-05-07T01:21:49.747Z,14.07
2023-05-07T01:24:16.905Z,14.00
2023-05-07T01:26:45.612Z,13.95
2023-05-07T01:29:12.537Z,13.96
2023-05-07T01:31:41.291Z,13.99
2023-05-07T01:34:11.032Z,13.98
2023-05-07T01:36:39.833Z,13.94
2023-05-07T01:39:07.668Z,13.92
2023-05-07T01:41:34.487Z,13.87
2023-05-07T01:44:02.571Z,13.82
2023-05-07T01:46:29.881Z,13.68
2023-05-07T01:48:56.751Z,13.57
2023-05-07T01:51:23.866Z,13.62
2023-05-07T01:53:53.476Z,13.46
2023-05-07T01:56:21.431Z,13.39
2023-05-07T01:58:48.119Z,13.48
2023-05-07T02:01:15.262Z,13.57
2023-05-07T02:03:42.133Z,13.54
2023-05-07T02:06:09.669Z,13.48
2023-05-07T02:08:36.630Z,13.48
2023-05-07T02:11:03.348Z,13.42
2023-05-07T02:13:32.858Z,13.36
2023-05-07T02:15:59.766Z,13.38
2023-05-07T02:18:26.438Z,13.33
2023-05-07T02:20:53.143Z,13.36
2023-05-07T02:23:19.990Z,13.38
2023-05-07T02:25:47.047Z,13.35
2023-05-07T02:28:14.016Z,13.33
2023-05-07T02:30:41.376Z,13.30
2023-05-07T02:33:09.488Z,13.28
2023-05-07T02:35:36.445Z,13.22
2023-05-07T02:38:03.278Z,13.24
2023-05-07T02:40:29.939Z,13.12
2023-05-07T02:42:56.723Z,13.04
2023-05-07T02:45:23.362Z,13.01
2023-05-07T02:47:50.053Z,12.88
2023-05-07T02:50:16.871Z,12.77
2023-05-07T02:52:43.457Z,12.72
2023-05-07T02:55:10.197Z,12.67
2023-05-07T02:57:36.946Z,12.57
2023-05-07T03:00:18.048Z,12.53
2023-05-07T03:02:47.808Z,12.47
2023-05-07T03:05:15.430Z,12.52
2023-05-07T03:07:46.306Z,12.50
2023-05-07T03:10:13.239Z,12.40
2023-05-07T03:12:40.338Z,12.42
2023-05-07T03:15:07.586Z,12.37
2023-05-07T03:17:34.318Z,12.33
2023-05-07T03:20:01.068Z,12.34
2023-05-07T03:22:27.679Z,12.30
2023-05-07T03:24:54.315Z,12.18
2023-05-07T03:27:20.926Z,12.13
2023-05-07T03:29:47.539Z,12.13
2023-05-07T03:32:14.448Z,12.18
2023-05-07T03:34:41.252Z,12.14
2023-05-07T03:37:07.819Z,12.13
2023-05-07T03:39:34.512Z,12.13
2023-05-07T03:42:02.067Z,12.02
2023-05-07T03:44:28.800Z,12.02
2023-05-07T03:46:56.402Z,12.06
2023-05-07T03:49:22.989Z,12.02
2023-05-07T03:51:49.642Z,12.00
2023-05-07T03:54:16.333Z,11.95
2023-05-07T03:56:42.938Z,11.91
2023-05-07T03:59:09.543Z,11.86
2023-05-07T04:01:36.175Z,11.75
2023-05-07T04:04:02.946Z,11.84
2023-05-07T04:06:29.700Z,11.86
2023-05-07T04:08:56.446Z,11.97
2023-05-07T04:11:23.231Z,11.98
2023-05-07T04:13:49.870Z,11.94
2023-05-07T04:16:16.695Z,11.98
2023-05-07T04:18:43.388Z,12.02
2023-05-07T04:21:20.416Z,12.02
2023-05-07T04:23:48.260Z,12.09
2023-05-07T04:26:15.320Z,12.16
2023-05-07T04:28:41.995Z,12.18
2023-05-07T04:31:09.059Z,12.22
2023-05-07T04:33:35.755Z,12.27
2023-05-07T04:36:03.862Z,12.36
2023-05-07T04:38:33.297Z,12.46
2023-05-07T04:41:05.141Z,12.43
2023-05-07T04:43:32.086Z,12.55
2023-05-07T04:45:58.702Z,12.65
2023-05-07T04:48:25.908Z,12.57
2023-05-07T04:50:52.526Z,12.60
2023-05-07T04:53:19.731Z,12.59
2023-05-07T04:55:46.504Z,12.68
2023-05-07T04:58:13.300Z,12.70
2023-05-07T05:00:40.716Z,12.68
2023-05-07T05:03:08.271Z,12.64
2023-05-07T05:05:35.147Z,12.41
2023-05-07T05:08:01.754Z,12.59
2023-05-07T05:10:29.020Z,12.66
2023-05-07T05:12:55.793Z,12.61
2023-05-07T05:15:22.710Z,12.63
2023-05-07T05:17:49.448Z,12.69
2023-05-07T05:20:16.127Z,12.81
2023-05-07T05:22:43.415Z,12.72
2023-05-07T05:25:10.193Z,12.68
2023-05-07T05:27:36.846Z,12.84
2023-05-07T05:30:04.854Z,13.07
2023-05-07T05:32:31.485Z,13.29
2023-05-07T05:34:58.107Z,13.41
2023-05-07T05:37:24.824Z,13.64
2023-05-07T05:39:51.481Z,13.99
2023-05-07T05:42:18.150Z,14.29
2023-05-07T05:44:44.810Z,14.79
2023-05-07T05:47:11.546Z,15.59
2023-05-07T05:49:38.365Z,16.19
2023-05-07T05:52:05.163Z,16.69
2023-05-07T05:54:31.706Z,17.47
2023-05-07T05:56:58.726Z,17.65
2023-05-07T05:59:25.792Z,18.22
2023-05-07T06:01:52.598Z,18.72
2023-05-07T06:04:19.302Z,19.42
2023-05-07T06:06:45.886Z,19.96
2023-05-07T06:09:12.816Z,20.18
2023-05-07T06:11:40.098Z,20.19
2023-05-07T06:14:06.578Z,20.47
2023-05-07T06:16:33.198Z,20.87
2023-05-07T06:18:59.840Z,21.23
2023-05-07T06:21:26.498Z,21.61
2023-05-07T06:23:53.444Z,22.19
2023-05-07T06:26:20.132Z,22.57
2023-05-07T06:28:46.760Z,22.70
2023-05-07T06:31:18.049Z,22.66
2023-05-07T06:33:46.085Z,22.88
2023-05-07T06:36:12.791Z,23.03
2023-05-07T06:38:39.405Z,23.29
2023-05-07T06:41:07.619Z,23.40
2023-05-07T06:43:34.850Z,23.55
2023-05-07T06:46:01.536Z,23.35
2023-05-07T06:48:28.195Z,23.44
2023-05-07T06:50:56.746Z,23.42
2023-05-07T06:53:23.389Z,23.07
2023-05-07T06:55:49.999Z,23.43
2023-05-07T06:58:16.621Z,23.09
2023-05-07T07:00:43.239Z,23.20
2023-05-07T07:03:09.902Z,23.26
2023-05-07T07:05:36.652Z,23.34
2023-05-07T07:08:03.228Z,23.50
2023-05-07T07:10:29.859Z,22.79
2023-05-07T07:12:56.574Z,22.74
2023-05-07T07:15:23.338Z,22.66
2023-05-07T07:17:50.184Z,23.04
2023-05-07T07:20:17.425Z,23.04
2023-05-07T07:22:44.229Z,23.19
2023-05-07T07:25:12.173Z,22.95
2023-05-07T07:27:39.002Z,22.70
2023-05-07T07:30:06.503Z,22.70
2023-05-07T07:32:34.582Z,23.14
2023-05-07T07:35:01.338Z,23.37
2023-05-07T07:37:28.127Z,23.64
2023-05-07T07:39:54.790Z,23.40
2023-05-07T07:42:21.470Z,23.42
2023-05-07T07:44:48.161Z,23.25
2023-05-07T07:47:14.828Z,23.55
2023-05-07T07:49:41.441Z,23.32
2023-05-07T07:52:08.034Z,23.32
2023-05-07T07:54:34.756Z,23.55
2023-05-07T07:57:02.572Z,23.50
2023-05-07T07:59:29.219Z,23.35
2023-05-07T08:01:57.973Z,23.63
2023-05-07T08:04:24.857Z,23.92
2023-05-07T08:06:51.499Z,23.94
2023-05-07T08:09:18.165Z,23.98
2023-05-07T08:11:44.796Z,23.87
2023-05-07T08:14:12.148Z,23.93
2023-05-07T08:16:38.829Z,23.75
2023-05-07T08:19:05.476Z,23.33
2023-05-07T08:21:34.442Z,23.42
2023-05-07T08:24:01.731Z,23.07
2023-05-07T08:26:28.356Z,23.30
2023-05-07T08:28:54.959Z,23.45
2023-05-07T08:31:21.727Z,23.37
2023-05-07T08:33:48.342Z,23.36
2023-05-07T08:36:15.029Z,23.05
2023-05-07T08:38:46.788Z,23.14
2023-05-07T08:41:13.608Z,23.30
2023-05-07T08:43:42.250Z,23.55
2023-05-07T08:46:11.546Z,23.71
2023-05-07T08:48:38.384Z,23.63
2023-05-07T08:51:05.035Z,23.49
2023-05-07T08:53:32.031Z,23.48
2023-05-07T08:55:59.692Z,23.40
2023-05-07T08:58:26.372Z,23.11
2023-05-07T09:00:54.306Z,23.26
2023-05-07T09:03:21.108Z,23.23
2023-05-07T09:05:47.791Z,23.26
2023-05-07T09:08:17.327Z,23.47
2023-05-07T09:10:44.132Z,23.54
2023-05-07T09:13:14.382Z,23.51
2023-05-07T09:15:41.027Z,23.63
2023-05-07T09:18:08.044Z,23.62
2023-05-07T09:20:34.685Z,23.86
2023-05-07T09:23:01.315Z,24.10
2023-05-07T09:25:33.149Z,24.13
2023-05-07T09:28:01.432Z,24.01
2023-05-07T09:30:32.302Z,24.18
2023-05-07T09:33:00.474Z,24.17
2023-05-07T09:35:30.441Z,23.94
2023-05-07T09:37:58.751Z,23.99
2023-05-07T09:40:31.389Z,23.99
2023-05-07T09:43:09.571Z,23.79
2023-05-07T09:45:37.555Z,24.07
2023-05-07T09:48:07.043Z,24.06
2023-05-07T09:50:50.309Z,24.11
2023-05-07T09:53:18.625Z,24.22
2023-05-07T09:55:47.048Z,24.34
2023-05-07T09:58:13.935Z,24.64
2023-05-07T10:00:43.498Z,24.75
2023-05-07T10:03:10.863Z,24.80
2023-05-07T10:05:38.318Z,24.89
2023-05-07T10:08:05.659Z,25.06
2023-05-07T10:10:34.550Z,24.70
2023-05-07T10:13:03.219Z,24.86
2023-05-07T10:15:30.598Z,24.73
2023-05-07T10:17:58.006Z,24.97
2023-05-07T10:20:25.852Z,25.16
2023-05-07T10:22:53.567Z,25.15
2023-05-07T10:25:26.616Z,25.03
2023-05-07T10:27:56.375Z,25.18
2023-05-07T10:30:38.839Z,25.46
2023-05-07T10:33:08.918Z,25.38
2023-05-07T10:35:44.069Z,25.53
2023-05-07T10:38:10.938Z,25.57
2023-05-07T10:40:37.907Z,25.86
2023-05-07T10:43:09.480Z,25.95
2023-05-07T10:45:37.395Z,25.99
2023-05-07T10:48:13.783Z,26.02
2023-05-07T10:50:48.120Z,25.92
2023-05-07T10:53:17.666Z,25.82
2023-05-07T10:56:10.306Z,25.68
2023-05-07T10:58:38.710Z,25.73
2023-05-07T11:01:05.585Z,25.86
2023-05-07T11:03:32.227Z,25.83
2023-05-07T11:06:13.543Z,25.72
2023-05-07T11:08:59.517Z,25.37
2023-05-07T11:11:56.876Z,25.44
2023-05-07T11:14:42.215Z,25.60
2023-05-07T11:17:09.568Z,25.82
2023-05-07T11:19:52.959Z,25.80
2023-05-07T11:22:45.658Z,25.58
2023-05-07T11:25:19.327Z,25.42
2023-05-07T11:27:46.206Z,25.35
2023-05-07T11:30:19.612Z,25.50
2023-05-07T11:32:49.323Z,25.76
2023-05-07T11:35:16.941Z,25.76
2023-05-07T11:37:45.835Z,25.66
2023-05-07T11:40:15.011Z,25.49
2023-05-07T11:42:43.855Z,25.36
2023-05-07T11:45:11.264Z,25.25
2023-05-07T11:47:38.467Z,25.40
2023-05-07T11:50:09.210Z,25.48
2023-05-07T11:52:36.850Z,25.55
2023-05-07T11:55:07.312Z,25.62
2023-05-07T11:57:34.419Z,25.65
2023-05-07T12:00:02.955Z,25.74
2023-05-07T12:02:29.602Z,25.85
2023-05-07T12:04:56.669Z,25.59
2023-05-07T12:07:25.052Z,25.64
2023-05-07T12:09:51.791Z,25.58
2023-05-07T12:12:18.649Z,25.53
2023-05-07T12:14:46.931Z,25.62
2023-05-07T12:17:15.307Z,25.66
2023-05-07T12:19:44.354Z,25.62
2023-05-07T12:22:11.730Z,25.61
2023-05-07T12:24:49.833Z,25.52
2023-05-07T12:27:17.973Z,25.47
2023-05-07T12:29:48.231Z,25.41
2023-05-07T12:32:17.097Z,25.45
2023-05-07T12:34:45.886Z,25.51
2023-05-07T12:37:16.267Z,25.57
2023-05-07T12:39:49.415Z,25.61
2023-05-07T12:42:17.614Z,25.65
2023-05-07T12:44:47.504Z,25.60
2023-05-07T12:47:14.116Z,25.62
2023-05-07T12:49:42.422Z,25.74
2023-05-07T12:52:09.302Z,25.60
2023-05-07T12:54:38.974Z,25.68
2023-05-07T12:57:10.482Z,25.54
2023-05-07T12:59:43.423Z,25.60
2023-05-07T13:02:10.806Z,25.73
2023-05-07T13:04:37.699Z,25.70
2023-05-07T13:07:04.297Z,25.63
2023-05-07T13:09:32.327Z,25.64
2023-05-07T13:12:02.624Z,25.46
2023-05-07T13:14:29.465Z,25.40
2023-05-07T13:16:56.123Z,25.36
2023-05-07T13:19:22.756Z,25.24
2023-05-07T13:21:50.728Z,25.36
2023-05-07T13:24:17.364Z,25.44
2023-05-07T13:26:45.905Z,25.63
2023-05-07T13:29:16.082Z,25.68
2023-05-07T13:31:45.108Z,25.77
2023-05-07T13:34:11.894Z,25.88
2023-05-07T13:36:40.975Z,25.83
2023-05-07T13:39:07.822Z,25.94
2023-05-07T13:41:34.570Z,26.13
2023-05-07T13:44:01.180Z,26.13
2023-05-07T13:46:28.196Z,25.93
2023-05-07T13:48:54.933Z,25.62
2023-05-07T13:51:21.616Z,25.46
2023-05-07T13:53:48.782Z,25.32
2023-05-07T13:56:15.619Z,25.32
2023-05-07T13:58:56.266Z,25.23
2023-05-07T14:01:26.614Z,25.14
2023-05-07T14:03:53.432Z,25.09
2023-05-07T14:06:20.823Z,25.02
2023-05-07T14:08:47.732Z,25.20
2023-05-07T14:11:14.485Z,25.33
2023-05-07T14:13:41.408Z,25.30
2023-05-07T14:16:08.138Z,25.44
2023-05-07T14:18:35.582Z,25.56
2023-05-07T14:21:02.174Z,25.54
2023-05-07T14:23:28.833Z,25.38
2023-05-07T14:25:55.770Z,25.40
2023-05-07T14:28:22.417Z,25.39
2023-05-07T14:30:49.293Z,25.31
2023-05-07T14:33:15.946Z,25.29
2023-05-07T14:35:42.642Z,25.25
2023-05-07T14:38:09.224Z,25.11
2023-05-07T14:40:35.818Z,25.15
2023-05-07T14:43:02.409Z,25.12
2023-05-07T14:45:29.024Z,25.12
2023-05-07T14:47:56.527Z,25.12
2023-05-07T14:50:23.178Z,25.15
2023-05-07T14:52:49.920Z,25.18
2023-05-07T14:55:16.681Z,25.17
2023-05-07T14:57:43.370Z,25.19
2023-05-07T15:00:10.889Z,25.11
2023-05-07T15:02:37.695Z,25.23
2023-05-07T15:05:04.892Z,25.25
2023-05-07T15:07:33.736Z,25.21
2023-05-07T15:10:00.396Z,25.26
2023-05-07T15:12:27.013Z,25.22
2023-05-07T15:14:53.682Z,25.24
2023-05-07T15:17:20.380Z,25.27
2023-05-07T15:19:47.014Z,25.26
2023-05-07T15:22:13.650Z,25.13
2023-05-07T15:24:42.055Z,24.91
2023-05-07T15:27:08.945Z,24.76
2023-05-07T15:29:35.648Z,24.65
2023-05-07T15:32:02.357Z,24.52
2023-05-07T15:34:29.054Z,24.46
2023-05-07T15:36:57.933Z,24.45
2023-05-07T15:39:25.198Z,24.41
2023-05-07T15:41:52.013Z,24.38
2023-05-07T15:44:18.628Z,24.23
2023-05-07T15:46:45.311Z,24.11
2023-05-07T15:49:11.988Z,24.04
2023-05-07T15:51:38.844Z,24.04
2023-05-07T15:54:05.834Z,24.01
2023-05-07T15:56:33.967Z,23.98
2023-05-07T15:59:00.869Z,23.95
2023-05-07T16:01:27.932Z,23.95
2023-05-07T16:03:54.594Z,23.94
2023-05-07T16:06:21.249Z,23.88
2023-05-07T16:08:48.261Z,23.91
2023-05-07T16:11:15.050Z,23.98
2023-05-07T16:13:41.688Z,23.97
2023-05-07T16:16:08.453Z,24.00
2023-05-07T16:18:37.017Z,23.92
2023-05-07T16:21:03.834Z,23.85
2023-05-07T16:23:31.480Z,23.86
2023-05-07T16:25:58.185Z,23.86
2023-05-07T16:28:25.759Z,23.90
2023-05-07T16:30:52.718Z,23.89
2023-05-07T16:33:20.033Z,23.82
2023-05-07T16:35:52.477Z,23.80
2023-05-07T16:38:19.295Z,23.75
2023-05-07T16:40:45.957Z,23.75
2023-05-07T16:43:12.581Z,23.69
2023-05-07T16:45:39.239Z,23.66
2023-05-07T16:48:08.449Z,23.62
2023-05-07T16:50:35.373Z,23.43
2023-05-07T16:53:02.086Z,23.31
2023-05-07T16:55:30.830Z,23.19
2023-05-07T16:57:57.438Z,23.19
2023-05-07T17:00:27.835Z,23.11
2023-05-07T17:02:58.778Z,22.90
2023-05-07T17:05:25.621Z,22.61
2023-05-07T17:07:52.384Z,22.49
2023-05-07T17:10:20.440Z,22.37
2023-05-07T17:12:47.415Z,22.19
2023-05-07T17:15:14.367Z,22.09
2023-05-07T17:17:42.060Z,21.91
2023-05-07T17:20:09.339Z,21.78
2023-05-07T17:22:36.165Z,21.60
2023-05-07T17:25:04.380Z,21.30
2023-05-07T17:27:34.022Z,20.94
2023-05-07T17:30:01.320Z,20.88
2023-05-07T17:32:29.559Z,20.75
2023-05-07T17:34:57.121Z,20.70
2023-05-07T17:37:23.953Z,20.61
2023-05-07T17:39:52.696Z,20.42
2023-05-07T17:42:19.408Z,20.27
2023-05-07T17:44:46.136Z,20.21
2023-05-07T17:47:14.354Z,20.06
2023-05-07T17:49:41.975Z,20.02
2023-05-07T17:52:09.076Z,20.01
2023-05-07T17:54:35.690Z,20.03
2023-05-07T17:57:02.407Z,20.02
2023-05-07T17:59:29.126Z,19.98
2023-05-07T18:01:56.048Z,19.88
2023-05-07T18:04:24.579Z,19.90
2023-05-07T18:06:51.200Z,19.89
2023-05-07T18:09:17.870Z,19.67
2023-05-07T18:11:44.581Z,19.48
2023-05-07T18:14:11.195Z,19.31
2023-05-07T18:16:38.065Z,19.16
2023-05-07T18:19:04.843Z,19.16
2023-05-07T18:21:31.811Z,19.05
2023-05-07T18:23:58.492Z,18.93
2023-05-07T18:26:25.659Z,18.67
2023-05-07T18:28:52.324Z,18.69
2023-05-07T18:31:20.712Z,18.63
2023-05-07T18:33:47.445Z,18.64
2023-05-07T18:36:14.061Z,18.64
2023-05-07T18:38:42.718Z,18.66
2023-05-07T18:41:09.472Z,18.62
2023-05-07T18:43:36.216Z,18.46
2023-05-07T18:46:03.068Z,18.33
2023-05-07T18:48:29.798Z,18.32
2023-05-07T18:50:57.092Z,18.31
2023-05-07T18:53:23.594Z,18.32
2023-05-07T18:55:51.236Z,18.22
2023-05-07T18:58:20.324Z,18.13
2023-05-07T19:00:48.176Z,17.87
2023-05-07T19:03:15.963Z,17.74
2023-05-07T19:05:44.198Z,17.55
2023-05-07T19:08:11.316Z,17.47
2023-05-07T19:10:38.297Z,17.40
2023-05-07T19:13:05.198Z,17.35
2023-05-07T19:15:31.897Z,17.13
2023-05-07T19:17:58.533Z,17.19
2023-05-07T19:20:25.400Z,17.14
2023-05-07T19:22:52.048Z,17.17
2023-05-07T19:25:18.936Z,17.10
2023-05-07T19:27:47.213Z,17.17
2023-05-07T19:30:14.047Z,17.23
2023-05-07T19:32:40.907Z,17.15
2023-05-07T19:35:08.123Z,17.07
2023-05-07T19:37:34.903Z,16.99
2023-05-07T19:40:05.297Z,16.86
2023-05-07T19:42:32.661Z,16.76
2023-05-07T19:44:59.253Z,16.72
2023-05-07T19:47:26.591Z,16.61
2023-05-07T19:49:53.157Z,16.56
2023-05-07T19:52:19.946Z,16.41
2023-05-07T19:54:46.618Z,16.29
2023-05-07T19:57:13.756Z,16.32
2023-05-07T19:59:40.677Z,16.28
2023-05-07T20:02:07.440Z,16.20
2023-05-07T20:04:38.109Z,16.18
2023-05-07T20:07:05.388Z,16.19
2023-05-07T20:09:32.114Z,16.17
2023-05-07T20:11:58.844Z,16.15
2023-05-07T20:14:28.952Z,16.07
2023-05-07T20:16:55.670Z,15.92
2023-05-07T20:19:22.391Z,16.02
2023-05-07T20:21:48.995Z,15.96
2023-05-07T20:24:18.884Z,15.88
2023-05-07T20:26:48.279Z,15.81
2023-05-07T20:29:14.980Z,15.70
2023-05-07T20:31:41.684Z,15.61
2023-05-07T20:34:08.499Z,15.57
2023-05-07T20:36:36.073Z,15.53
2023-05-07T20:39:03.548Z,15.43
2023-05-07T20:41:30.264Z,15.32
2023-05-07T20:43:57.218Z,15.43
2023-05-07T20:46:25.196Z,15.44
2023-05-07T20:48:52.648Z,15.48
2023-05-07T20:51:19.344Z,15.47
2023-05-07T20:53:47.740Z,15.47
2023-05-07T20:56:15.230Z,15.42
2023-05-07T20:58:41.978Z,15.42
2023-05-07T21:01:08.748Z,15.40
2023-05-07T21:03:35.639Z,15.32
2023-05-07T21:06:03.233Z,15.23
2023-05-07T21:08:30.079Z,15.09
2023-05-07T21:10:56.825Z,15.22
2023-05-07T21:13:23.722Z,15.19
2023-05-07T21:15:50.672Z,15.17
2023-05-07T21:18:18.997Z,15.10
2023-05-07T21:20:45.752Z,15.07
2023-05-07T21:23:12.369Z,15.06
2023-05-07T21:25:41.005Z,15.04
2023-05-07T21:28:09.393Z,15.02
2023-05-07T21:30:37.159Z,14.80
2023-05-07T21:33:06.295Z,14.82
2023-05-07T21:35:35.820Z,14.83
2023-05-07T21:38:02.756Z,14.80
2023-05-07T21:40:29.687Z,14.75
2023-05-07T21:42:56.322Z,14.69
2023-05-07T21:45:22.924Z,14.62
2023-05-07T21:47:49.585Z,14.59
2023-05-07T21:50:16.609Z,14.60
2023-05-07T21:52:43.524Z,14.61
2023-05-07T21:55:10.368Z,14.62
2023-05-07T21:57:37.889Z,14.68
2023-05-07T22:00:04.673Z,14.64
2023-05-07T22:02:31.543Z,14.55
2023-05-07T22:04:58.325Z,14.58
2023-05-07T22:07:25.230Z,14.55
2023-05-07T22:09:51.846Z,14.46
2023-05-07T22:12:18.492Z,14.56
2023-05-07T22:14:45.177Z,14.59
2023-05-07T22:17:11.826Z,14.59
2023-05-07T22:19:38.702Z,14.62
2023-05-07T22:22:05.445Z,14.69
2023-05-07T22:24:31.999Z,14.64
2023-05-07T22:26:58.688Z,14.55
2023-05-07T22:29:25.413Z,14.46
2023-05-07T22:31:52.238Z,14.41
2023-05-07T22:34:18.916Z,14.33
2023-05-07T22:36:45.918Z,14.38
2023-05-07T22:39:12.702Z,14.28
2023-05-07T22:41:39.409Z,14.18
2023-05-07T22:44:07.003Z,14.16
2023-05-07T22:46:33.724Z,14.22
2023-05-07T22:49:00.386Z,14.30
2023-05-07T22:51:27.455Z,14.38
2023-05-07T22:53:54.106Z,14.39
2023-05-07T22:56:20.769Z,14.24
2023-05-07T22:58:47.419Z,14.12
2023-05-07T23:01:16.400Z,14.30
2023-05-07T23:03:43.277Z,14.23
2023-05-07T23:06:09.989Z,14.35
2023-05-07T23:08:36.625Z,14.33
2023-05-07T23:11:03.322Z,14.33
2023-05-07T23:13:30.016Z,14.36
2023-05-07T23:15:58.843Z,14.36
2023-05-07T23:18:28.070Z,14.31
2023-05-07T23:20:54.874Z,14.31
2023-05-07T23:23:21.793Z,14.24
2023-05-07T23:25:51.487Z,14.31
2023-05-07T23:28:18.176Z,14.38
2023-05-07T23:30:44.884Z,14.33
2023-05-07T23:33:11.639Z,14.50
2023-05-07T23:35:38.294Z,14.51
2023-05-07T23:38:04.965Z,14.54
2023-05-07T23:40:31.618Z,14.52
2023-05-07T23:42:58.360Z,14.50
2023-05-07T23:45:24.976Z,14.43
2023-05-07T23:47:51.708Z,14.36
2023-05-07T23:50:18.468Z,14.27
2023-05-07T23:52:45.081Z,14.17
2023-05-07T23:55:12.044Z,14.11
2023-05-07T23:57:38.631Z,14.06
